createdAt,value
2018-06-23T00:00:18.479Z,1.85
2018-06-23T00:02:47.826Z,1.75
2018-06-23T00:05:17.019Z,1.92
2018-06-23T00:07:46.239Z,2.12
2018-06-23T00:12:52.595Z,2.75
2018-06-23T00:15:21.726Z,2.22
2018-06-23T00:17:50.841Z,2.17
2018-06-23T00:20:19.943Z,1.82
2018-06-23T00:22:49.047Z,1.70
2018-06-23T00:25:23.308Z,2.35
2018-06-23T00:27:52.325Z,1.77
2018-06-23T00:30:21.259Z,2.55
2018-06-23T00:32:50.299Z,1.87
2018-06-23T00:35:19.320Z,2.15
2018-06-23T00:37:48.507Z,1.90
2018-06-23T00:40:17.727Z,2.42
2018-06-23T00:42:46.778Z,2.45
2018-06-23T00:45:15.743Z,1.62
2018-06-23T00:47:44.647Z,2.10
2018-06-23T00:50:13.558Z,2.10
2018-06-23T00:52:42.450Z,1.87
2018-06-23T00:55:11.343Z,1.98
2018-06-23T00:57:40.215Z,2.30
2018-06-23T01:00:09.242Z,1.95
2018-06-23T01:02:38.102Z,2.00
2018-06-23T01:05:06.997Z,2.45
2018-06-23T01:07:35.901Z,2.02
2018-06-23T01:10:04.911Z,1.57
2018-06-23T01:12:33.785Z,1.70
2018-06-23T01:15:02.663Z,2.22
2018-06-23T01:17:31.544Z,2.10
2018-06-23T01:20:00.130Z,2.40
2018-06-23T01:22:28.913Z,2.22
2018-06-23T01:24:57.811Z,2.42
2018-06-23T01:27:26.694Z,2.15
2018-06-23T01:29:55.615Z,2.15
2018-06-23T01:32:24.502Z,2.12
2018-06-23T01:34:53.407Z,2.17
2018-06-23T01:37:22.272Z,2.33
2018-06-23T01:39:51.158Z,2.35
2018-06-23T01:42:20.024Z,2.10
2018-06-23T01:44:48.913Z,2.30
2018-06-23T01:47:17.816Z,2.70
2018-06-23T01:49:46.723Z,1.90
2018-06-23T01:52:15.610Z,2.15
2018-06-23T01:54:44.546Z,2.22
2018-06-23T01:57:13.486Z,1.90
2018-06-23T01:59:42.406Z,2.00
2018-06-23T02:02:11.363Z,2.10
2018-06-23T02:04:40.466Z,2.30
2018-06-23T02:07:09.343Z,2.20
2018-06-23T02:09:38.223Z,2.37
2018-06-23T02:12:07.407Z,2.42
2018-06-23T02:15:11.303Z,2.00
2018-06-23T02:17:45.682Z,2.33
2018-06-23T02:20:20.049Z,2.22
2018-06-23T02:22:54.466Z,2.25
2018-06-23T02:25:28.674Z,2.80
2018-06-23T02:28:03.007Z,2.47
2018-06-23T02:31:35.014Z,2.30
2018-06-23T02:34:09.133Z,2.30
2018-06-23T02:36:38.032Z,2.87
2018-06-23T02:39:08.715Z,2.70
2018-06-23T02:41:37.623Z,2.80
2018-06-23T02:44:06.534Z,3.05
2018-06-23T02:46:35.424Z,3.35
2018-06-23T02:49:04.438Z,2.85
2018-06-23T02:51:33.321Z,2.65
2018-06-23T02:54:02.256Z,2.60
2018-06-23T02:56:31.144Z,3.75
2018-06-23T02:59:00.026Z,2.70
2018-06-23T03:01:28.904Z,3.15
2018-06-23T03:03:57.802Z,3.40
2018-06-23T03:06:26.685Z,3.20
2018-06-23T03:08:55.582Z,3.47
2018-06-23T03:11:24.474Z,3.37
2018-06-23T03:13:53.390Z,3.95
2018-06-23T03:16:22.254Z,3.20
2018-06-23T03:18:51.159Z,3.08
2018-06-23T03:21:20.047Z,3.45
2018-06-23T03:23:48.961Z,3.20
2018-06-23T03:26:17.870Z,3.30
2018-06-23T03:28:46.782Z,3.33
2018-06-23T03:31:15.714Z,5.37
2018-06-23T03:33:44.616Z,2.72
2018-06-23T03:36:13.654Z,4.08
2018-06-23T03:38:42.554Z,2.77
2018-06-23T03:41:11.436Z,2.50
2018-06-23T03:43:40.352Z,3.15
2018-06-23T03:46:09.247Z,3.40
2018-06-23T03:48:38.151Z,2.80
2018-06-23T03:51:07.023Z,3.00
2018-06-23T03:53:35.921Z,3.30
2018-06-23T03:56:04.909Z,3.60
2018-06-23T03:58:33.809Z,3.65
2018-06-23T04:01:07.222Z,3.55
2018-06-23T04:03:36.374Z,3.67
2018-06-23T04:06:05.320Z,2.75
2018-06-23T04:08:35.011Z,4.75
2018-06-23T04:11:04.210Z,3.40
2018-06-23T04:13:33.627Z,3.08
2018-06-23T04:16:02.502Z,3.12
2018-06-23T04:18:31.406Z,3.20
2018-06-23T04:21:00.270Z,3.60
2018-06-23T04:23:29.186Z,3.45
2018-06-23T04:25:58.102Z,3.30
2018-06-23T04:28:26.989Z,2.92
2018-06-23T04:30:55.902Z,3.20
2018-06-23T04:33:24.774Z,3.00
2018-06-23T04:35:53.697Z,3.08
2018-06-23T04:38:22.292Z,2.90
2018-06-23T04:40:51.063Z,3.15
2018-06-23T04:43:19.967Z,2.70
2018-06-23T04:45:48.834Z,2.55
2018-06-23T04:48:17.734Z,2.67
2018-06-23T04:50:46.647Z,3.08
2018-06-23T04:53:15.672Z,2.62
2018-06-23T04:55:44.634Z,3.08
2018-06-23T04:58:13.582Z,2.62
2018-06-23T05:00:42.514Z,2.83
2018-06-23T05:03:11.635Z,2.50
2018-06-23T05:05:40.590Z,2.85
2018-06-23T05:08:09.534Z,2.10
2018-06-23T05:10:38.407Z,3.60
2018-06-23T05:13:07.306Z,3.12
2018-06-23T05:15:36.632Z,2.95
2018-06-23T05:18:05.739Z,2.83
2018-06-23T05:20:34.774Z,2.50
2018-06-23T05:23:03.665Z,3.20
2018-06-23T05:25:32.517Z,3.12
2018-06-23T05:28:01.413Z,2.30
2018-06-23T05:30:30.278Z,2.35
2018-06-23T05:32:59.158Z,2.55
2018-06-23T05:35:28.118Z,2.40
2018-06-23T05:37:57.011Z,2.90
2018-06-23T05:40:25.914Z,2.67
2018-06-23T05:42:55.877Z,2.33
2018-06-23T05:45:24.739Z,2.17
2018-06-23T05:47:53.398Z,2.52
2018-06-23T05:50:22.182Z,1.90
2018-06-23T05:52:51.174Z,2.83
2018-06-23T05:55:20.218Z,2.60
2018-06-23T05:57:49.087Z,2.70
2018-06-23T06:00:18.122Z,2.60
2018-06-23T06:02:47.043Z,2.50
2018-06-23T06:05:16.043Z,2.70
2018-06-23T06:07:45.010Z,2.55
2018-06-23T06:10:14.034Z,2.45
2018-06-23T06:12:43.035Z,2.10
2018-06-23T06:15:11.942Z,2.92
2018-06-23T06:17:41.700Z,2.00
2018-06-23T06:20:12.780Z,3.52
2018-06-23T06:22:42.493Z,1.87
2018-06-23T06:25:11.996Z,2.30
2018-06-23T06:27:40.905Z,2.22
2018-06-23T06:30:10.826Z,2.20
2018-06-23T06:32:39.716Z,2.77
2018-06-23T06:35:08.735Z,1.80
2018-06-23T06:37:37.594Z,2.58
2018-06-23T06:40:13.564Z,1.90
2018-06-23T06:42:42.454Z,2.27
2018-06-23T06:45:11.397Z,2.05
2018-06-23T06:47:40.294Z,2.30
2018-06-23T06:50:09.212Z,2.00
2018-06-23T06:52:38.115Z,1.60
2018-06-23T06:55:11.522Z,2.40
2018-06-23T06:57:40.898Z,1.82
2018-06-23T07:00:09.904Z,2.60
2018-06-23T07:02:38.923Z,1.87
2018-06-23T07:05:07.866Z,2.35
2018-06-23T07:07:36.799Z,1.80
2018-06-23T07:10:06.290Z,1.60
2018-06-23T07:12:35.131Z,2.10
2018-06-23T07:15:10.226Z,2.80
2018-06-23T07:17:39.174Z,2.05
2018-06-23T07:20:08.083Z,1.77
2018-06-23T07:22:37.010Z,1.92
2018-06-23T07:25:06.079Z,2.30
2018-06-23T07:27:34.958Z,2.95
2018-06-23T07:30:04.476Z,2.30
2018-06-23T07:32:33.391Z,1.92
2018-06-23T07:35:02.460Z,2.30
2018-06-23T07:37:31.254Z,1.55
2018-06-23T07:40:00.142Z,2.05
2018-06-23T07:42:29.078Z,2.00
2018-06-23T07:44:58.783Z,1.70
2018-06-23T07:47:28.001Z,2.30
2018-06-23T07:49:56.882Z,2.27
2018-06-23T07:52:25.748Z,2.50
2018-06-23T07:54:54.639Z,2.25
2018-06-23T07:57:23.547Z,1.80
2018-06-23T07:59:52.450Z,1.50
2018-06-23T08:02:21.312Z,2.20
2018-06-23T08:04:50.442Z,1.60
2018-06-23T08:07:19.318Z,1.70
2018-06-23T08:09:48.238Z,2.02
2018-06-23T08:12:17.287Z,1.72
2018-06-23T08:14:46.189Z,1.90
2018-06-23T08:17:15.330Z,1.90
2018-06-23T08:19:44.342Z,1.42
2018-06-23T08:22:13.010Z,1.55
2018-06-23T08:24:41.566Z,2.45
2018-06-23T08:27:10.347Z,1.70
2018-06-23T08:29:39.270Z,1.92
2018-06-23T08:32:08.159Z,1.42
2018-06-23T08:34:37.171Z,1.45
2018-06-23T08:37:06.071Z,2.15
2018-06-23T08:39:34.954Z,1.80
2018-06-23T08:42:03.854Z,1.75
2018-06-23T08:44:32.787Z,1.98
2018-06-23T08:47:01.681Z,1.42
2018-06-23T08:49:30.570Z,1.30
2018-06-23T08:51:59.486Z,2.10
2018-06-23T08:54:28.378Z,1.40
2018-06-23T08:56:57.303Z,1.37
2018-06-23T08:59:26.202Z,1.15
2018-06-23T09:01:55.119Z,1.50
2018-06-23T09:04:24.373Z,1.60
2018-06-23T09:06:53.429Z,1.95
2018-06-23T09:09:22.443Z,1.50
2018-06-23T09:11:51.326Z,1.20
2018-06-23T09:14:20.259Z,1.50
2018-06-23T09:16:49.164Z,1.82
2018-06-23T09:19:18.042Z,1.20
2018-06-23T09:21:46.975Z,2.22
2018-06-23T09:24:15.943Z,1.27
2018-06-23T09:26:44.890Z,0.93
2018-06-23T09:29:13.850Z,3.30
2018-06-23T09:31:42.798Z,1.55
2018-06-23T09:34:11.743Z,2.42
2018-06-23T09:36:40.657Z,1.12
2018-06-23T09:39:10.954Z,1.98
2018-06-23T09:41:39.903Z,1.20
2018-06-23T09:44:08.807Z,1.32
2018-06-23T09:46:38.089Z,1.47
2018-06-23T09:49:07.019Z,1.02
2018-06-23T09:51:35.951Z,1.12
2018-06-23T09:54:05.193Z,1.17
2018-06-23T09:56:38.098Z,1.02
2018-06-23T09:59:07.043Z,1.20
2018-06-23T10:01:37.264Z,1.25
2018-06-23T10:04:06.188Z,1.07
2018-06-23T10:06:35.186Z,1.10
2018-06-23T10:09:06.463Z,1.35
2018-06-23T10:11:35.418Z,1.77
2018-06-23T10:14:05.035Z,1.30
2018-06-23T10:16:33.991Z,1.30
2018-06-23T10:19:03.047Z,1.45
2018-06-23T10:21:31.953Z,1.47
2018-06-23T10:24:00.858Z,2.15
2018-06-23T10:26:29.864Z,1.35
2018-06-23T10:28:58.814Z,1.30
2018-06-23T10:31:27.797Z,1.10
2018-06-23T10:33:56.774Z,1.55
2018-06-23T10:36:25.758Z,1.25
2018-06-23T10:38:54.655Z,1.20
2018-06-23T10:41:23.591Z,1.17
2018-06-23T10:43:52.495Z,1.20
2018-06-23T10:46:21.467Z,1.40
2018-06-23T10:48:50.046Z,1.40
2018-06-23T10:51:19.210Z,1.60
2018-06-23T10:53:48.132Z,1.62
2018-06-23T10:56:17.086Z,1.90
2018-06-23T10:58:45.993Z,1.00
2018-06-23T11:01:15.048Z,1.27
2018-06-23T11:03:44.199Z,1.40
2018-06-23T11:06:13.165Z,1.37
2018-06-23T11:08:42.145Z,1.30
2018-06-23T11:11:11.022Z,1.47
2018-06-23T11:13:40.058Z,1.50
2018-06-23T11:16:09.005Z,1.00
2018-06-23T11:18:37.893Z,1.47
2018-06-23T11:21:06.909Z,1.40
2018-06-23T11:23:35.834Z,1.65
2018-06-23T11:26:04.843Z,1.20
2018-06-23T11:28:33.751Z,1.52
2018-06-23T11:31:02.644Z,1.42
2018-06-23T11:33:31.590Z,1.42
2018-06-23T11:36:00.503Z,1.37
2018-06-23T11:38:29.692Z,1.17
2018-06-23T11:40:58.629Z,1.30
2018-06-23T11:43:27.518Z,1.25
2018-06-23T11:45:56.444Z,1.20
2018-06-23T11:48:25.337Z,1.35
2018-06-23T11:50:54.288Z,1.50
2018-06-23T11:53:23.176Z,1.07
2018-06-23T11:55:51.778Z,1.00
2018-06-23T11:58:20.569Z,1.07
2018-06-23T12:00:49.474Z,1.07
2018-06-23T12:03:18.578Z,0.95
2018-06-23T12:05:47.420Z,1.10
2018-06-23T12:08:16.308Z,1.10
2018-06-23T12:10:45.222Z,1.07
2018-06-23T12:13:14.346Z,1.50
2018-06-23T12:15:43.287Z,1.00
2018-06-23T12:18:12.319Z,1.15
2018-06-23T12:20:41.267Z,1.07
2018-06-23T12:23:10.243Z,1.10
2018-06-23T12:25:39.243Z,1.47
2018-06-23T12:28:08.398Z,1.00
2018-06-23T12:30:37.319Z,1.05
2018-06-23T12:33:06.378Z,1.25
2018-06-23T12:35:35.282Z,1.30
2018-06-23T12:38:05.445Z,1.20
2018-06-23T12:40:34.376Z,1.27
2018-06-23T12:43:03.406Z,1.20
2018-06-23T12:45:32.315Z,1.20
2018-06-23T12:48:01.233Z,1.27
2018-06-23T12:50:30.158Z,1.10
2018-06-23T12:52:59.058Z,1.00
2018-06-23T12:55:27.963Z,1.35
2018-06-23T12:57:56.903Z,1.30
2018-06-23T13:00:25.815Z,1.62
2018-06-23T13:02:54.742Z,1.90
2018-06-23T13:05:23.627Z,1.50
2018-06-23T13:07:52.535Z,1.50
2018-06-23T13:10:21.458Z,0.80
2018-06-23T13:12:50.387Z,1.20
2018-06-23T13:15:19.458Z,1.12
2018-06-23T13:17:48.406Z,1.10
2018-06-23T13:20:17.351Z,1.00
2018-06-23T13:22:46.342Z,1.10
2018-06-23T13:25:15.482Z,1.17
2018-06-23T13:27:44.278Z,1.37
2018-06-23T13:30:12.948Z,0.93
2018-06-23T13:32:41.997Z,1.32
2018-06-23T13:35:11.007Z,1.20
2018-06-23T13:37:40.423Z,1.77
2018-06-23T13:40:09.354Z,1.37
2018-06-23T13:42:38.274Z,1.00
2018-06-23T13:45:07.271Z,1.52
2018-06-23T13:47:36.275Z,1.42
2018-06-23T13:50:05.410Z,0.85
2018-06-23T13:52:34.392Z,1.22
2018-06-23T13:55:03.422Z,1.20
2018-06-23T13:57:32.330Z,1.52
2018-06-23T14:00:01.230Z,1.20
2018-06-23T14:02:30.136Z,1.47
2018-06-23T14:04:59.031Z,1.20
2018-06-23T14:07:28.027Z,1.92
2018-06-23T14:09:56.924Z,1.30
2018-06-23T14:12:25.814Z,1.40
2018-06-23T14:14:54.712Z,1.50
2018-06-23T14:17:23.812Z,1.35
2018-06-23T14:19:52.818Z,1.12
2018-06-23T14:22:21.766Z,1.50
2018-06-23T14:24:50.682Z,1.40
2018-06-23T14:27:19.588Z,1.10
2018-06-23T14:29:48.574Z,1.10
2018-06-23T14:32:17.697Z,1.60
2018-06-23T14:34:46.528Z,1.20
2018-06-23T14:37:15.419Z,1.07
2018-06-23T14:39:44.423Z,1.25
2018-06-23T14:42:14.735Z,1.10
2018-06-23T14:44:44.392Z,1.12
2018-06-23T14:47:13.442Z,1.10
2018-06-23T14:49:42.374Z,1.50
2018-06-23T14:52:11.274Z,1.32
2018-06-23T14:54:40.173Z,1.32
2018-06-23T14:57:09.046Z,1.75
2018-06-23T14:59:38.015Z,1.45
2018-06-23T15:02:06.871Z,1.50
2018-06-23T15:04:35.822Z,1.70
2018-06-23T15:07:04.730Z,2.10
2018-06-23T15:09:44.878Z,2.00
2018-06-23T15:13:22.370Z,2.00
2018-06-23T15:15:51.271Z,1.45
2018-06-23T15:18:20.251Z,1.80
2018-06-23T15:20:48.857Z,1.80
2018-06-23T15:23:17.680Z,2.15
2018-06-23T15:25:46.628Z,2.10
2018-06-23T15:28:15.566Z,1.77
2018-06-23T15:30:44.581Z,2.35
2018-06-23T15:33:13.552Z,1.70
2018-06-23T15:35:42.609Z,2.08
2018-06-23T15:38:11.625Z,2.02
2018-06-23T15:40:40.668Z,1.70
2018-06-23T15:43:09.522Z,2.52
2018-06-23T15:45:38.522Z,3.52
2018-06-23T15:48:07.510Z,2.20
2018-06-23T15:50:36.417Z,2.30
2018-06-23T15:53:05.059Z,2.40
2018-06-23T15:55:33.862Z,1.90
2018-06-23T15:58:03.851Z,1.80
2018-06-23T16:00:32.758Z,2.10
2018-06-23T16:03:01.708Z,1.82
2018-06-23T16:05:30.730Z,1.82
2018-06-23T16:07:59.621Z,1.85
2018-06-23T16:10:28.583Z,2.47
2018-06-23T16:12:57.475Z,1.57
2018-06-23T16:15:26.124Z,2.17
2018-06-23T16:17:54.920Z,1.80
2018-06-23T16:20:23.899Z,1.60
2018-06-23T16:22:52.782Z,3.00
2018-06-23T16:25:21.722Z,1.85
2018-06-23T16:27:50.654Z,1.87
2018-06-23T16:30:19.862Z,2.15
2018-06-23T16:32:48.775Z,2.25
2018-06-23T16:35:18.110Z,1.30
2018-06-23T16:37:46.856Z,1.62
2018-06-23T16:40:15.779Z,2.30
2018-06-23T16:42:45.434Z,2.15
2018-06-23T16:45:14.467Z,1.75
2018-06-23T16:47:43.766Z,2.00
2018-06-23T16:50:12.672Z,2.15
2018-06-23T16:52:41.652Z,3.15
2018-06-23T16:55:10.562Z,1.67
2018-06-23T16:57:39.772Z,2.10
2018-06-23T17:00:08.780Z,2.15
2018-06-23T17:02:37.830Z,3.90
2018-06-23T17:05:06.857Z,3.02
2018-06-23T17:07:35.817Z,1.55
2018-06-23T17:10:04.870Z,1.92
2018-06-23T17:12:33.767Z,2.15
2018-06-23T17:15:02.742Z,2.25
2018-06-23T17:17:31.655Z,1.90
2018-06-23T17:20:00.630Z,2.00
2018-06-23T17:22:29.261Z,1.75
2018-06-23T17:24:58.309Z,2.02
2018-06-23T17:27:27.308Z,1.80
2018-06-23T17:29:56.191Z,2.35
2018-06-23T17:32:25.082Z,1.70
2018-06-23T17:34:54.309Z,1.62
2018-06-23T17:37:23.352Z,1.65
2018-06-23T17:39:52.246Z,1.90
2018-06-23T17:42:21.215Z,1.67
2018-06-23T17:44:50.198Z,1.90
2018-06-23T17:47:19.174Z,1.80
2018-06-23T17:49:48.067Z,1.50
2018-06-23T17:52:17.183Z,1.55
2018-06-23T17:54:46.280Z,1.45
2018-06-23T17:57:15.267Z,1.92
2018-06-23T17:59:43.848Z,1.85
2018-06-23T18:02:12.795Z,2.35
2018-06-23T18:04:41.655Z,2.00
2018-06-23T18:07:10.595Z,2.08
2018-06-23T18:09:39.502Z,1.60
2018-06-23T18:12:08.515Z,2.60
2018-06-23T18:14:37.384Z,1.80
2018-06-23T18:17:06.292Z,2.05
2018-06-23T18:19:35.163Z,1.70
2018-06-23T18:22:04.096Z,2.00
2018-06-23T18:24:33.037Z,2.15
2018-06-23T18:27:01.966Z,2.33
2018-06-23T18:29:31.063Z,2.05
2018-06-23T18:32:00.019Z,2.02
2018-06-23T18:34:28.916Z,1.60
2018-06-23T18:36:57.871Z,1.80
2018-06-23T18:39:26.819Z,1.57
2018-06-23T18:41:55.775Z,2.40
2018-06-23T18:44:24.775Z,1.72
2018-06-23T18:46:56.759Z,2.05
2018-06-23T18:49:25.650Z,2.33
2018-06-23T18:51:54.258Z,2.15
2018-06-23T18:54:23.071Z,2.00
2018-06-23T18:56:52.006Z,2.42
2018-06-23T18:59:21.702Z,2.05
2018-06-23T19:01:50.623Z,2.10
2018-06-23T19:04:19.550Z,2.65
2018-06-23T19:06:48.479Z,2.30
2018-06-23T19:09:17.674Z,2.17
2018-06-23T19:11:46.431Z,1.95
2018-06-23T19:14:15.363Z,2.08
2018-06-23T19:16:44.393Z,2.35
2018-06-23T19:19:13.548Z,2.35
2018-06-23T19:21:42.443Z,2.40
2018-06-23T19:24:11.387Z,2.20
2018-06-23T19:26:40.264Z,2.90
2018-06-23T19:29:09.162Z,2.50
2018-06-23T19:31:37.801Z,2.45
2018-06-23T19:34:06.643Z,4.15
2018-06-23T19:36:35.675Z,2.85
2018-06-23T19:39:07.638Z,2.75
2018-06-23T19:41:36.635Z,2.58
2018-06-23T19:44:05.587Z,3.37
2018-06-23T19:46:34.578Z,2.50
2018-06-23T19:49:03.457Z,3.00
2018-06-23T19:51:32.379Z,3.10
2018-06-23T19:54:01.281Z,2.95
2018-06-23T19:56:30.227Z,3.02
2018-06-23T19:58:59.221Z,3.27
2018-06-23T20:01:28.082Z,2.95
2018-06-23T20:03:56.717Z,3.25
2018-06-23T20:06:25.518Z,3.00
2018-06-23T20:08:54.430Z,3.10
2018-06-23T20:11:23.333Z,3.37
2018-06-23T20:13:52.488Z,2.85
2018-06-23T20:16:21.372Z,3.00
2018-06-23T20:18:50.254Z,3.30
2018-06-23T20:21:19.139Z,3.55
2018-06-23T20:23:48.166Z,3.12
2018-06-23T20:26:17.102Z,4.20
2018-06-23T20:28:46.099Z,3.05
2018-06-23T20:31:14.994Z,2.98
2018-06-23T20:33:43.896Z,3.30
2018-06-23T20:36:12.970Z,3.58
2018-06-23T20:38:42.001Z,3.35
2018-06-23T20:41:10.646Z,2.95
2018-06-23T20:43:39.698Z,3.17
2018-06-23T20:46:08.567Z,3.20
2018-06-23T20:48:37.466Z,3.40
2018-06-23T20:51:06.390Z,3.85
2018-06-23T20:53:35.278Z,3.87
2018-06-23T20:56:04.151Z,3.65
2018-06-23T20:58:33.050Z,3.25
2018-06-23T21:01:01.988Z,3.27
2018-06-23T21:03:30.918Z,3.62
2018-06-23T21:05:59.790Z,3.10
2018-06-23T21:08:28.710Z,3.90
2018-06-23T21:10:57.884Z,4.10
2018-06-23T21:13:26.761Z,3.42
2018-06-23T21:15:55.779Z,3.55
2018-06-23T21:18:24.755Z,3.30
2018-06-23T21:20:53.763Z,4.05
2018-06-23T21:23:22.775Z,3.60
2018-06-23T21:25:51.650Z,3.65
2018-06-23T21:28:20.562Z,3.55
2018-06-23T21:30:49.777Z,4.40
2018-06-23T21:33:18.609Z,3.58
2018-06-23T21:35:47.494Z,3.80
2018-06-23T21:38:16.622Z,3.02
2018-06-23T21:40:45.551Z,3.70
2018-06-23T21:43:14.811Z,4.05
2018-06-23T21:45:43.693Z,3.60
2018-06-23T21:48:13.521Z,3.98
2018-06-23T21:50:42.418Z,4.05
2018-06-23T21:53:11.375Z,4.40
2018-06-23T21:55:40.207Z,3.15
2018-06-23T21:58:09.121Z,4.37
2018-06-23T22:00:40.474Z,4.17
2018-06-23T22:03:10.708Z,3.67
2018-06-23T22:05:39.595Z,4.25
2018-06-23T22:08:09.162Z,3.87
2018-06-23T22:10:38.111Z,3.80
2018-06-23T22:13:07.139Z,4.40
2018-06-23T22:15:36.079Z,3.77
2018-06-23T22:18:05.075Z,3.83
2018-06-23T22:20:33.952Z,3.90
2018-06-23T22:23:02.898Z,4.67
2018-06-23T22:25:31.990Z,3.70
2018-06-23T22:28:00.573Z,4.15
2018-06-23T22:30:29.383Z,4.15
2018-06-23T22:32:58.296Z,4.25
2018-06-23T22:35:27.178Z,3.95
2018-06-23T22:37:56.060Z,4.58
2018-06-23T22:40:24.926Z,4.75
2018-06-23T22:42:53.831Z,4.85
2018-06-23T22:45:22.734Z,4.53
2018-06-23T22:47:51.656Z,4.97
2018-06-23T22:50:20.553Z,4.47
2018-06-23T22:52:49.428Z,4.33
2018-06-23T22:55:18.334Z,4.70
2018-06-23T22:57:47.266Z,4.53
2018-06-23T23:00:16.343Z,4.80
2018-06-23T23:02:45.341Z,4.37
2018-06-23T23:05:14.269Z,5.03
2018-06-23T23:07:43.193Z,4.53
2018-06-23T23:10:12.230Z,4.50
2018-06-23T23:12:41.158Z,4.65
2018-06-23T23:15:10.023Z,4.67
2018-06-23T23:17:38.938Z,4.70
2018-06-23T23:20:07.849Z,4.85
2018-06-23T23:22:36.907Z,5.10
2018-06-23T23:25:05.798Z,4.17
2018-06-23T23:27:34.674Z,4.72
2018-06-23T23:30:05.259Z,4.60
2018-06-23T23:32:34.122Z,5.30
2018-06-23T23:35:03.149Z,4.70
2018-06-23T23:37:32.022Z,5.03
2018-06-23T23:40:00.922Z,4.80
2018-06-23T23:42:29.818Z,5.45
2018-06-23T23:44:58.897Z,5.10
2018-06-23T23:47:27.762Z,4.30
2018-06-23T23:49:56.637Z,5.33
2018-06-23T23:52:25.531Z,6.05
2018-06-23T23:54:54.422Z,5.08
2018-06-23T23:57:23.309Z,4.55
2018-06-23T23:59:52.222Z,5.53
